createdAt,value
2024-03-05T00:00:13.890Z,7.81
2024-03-05T00:01:13.846Z,7.79
2024-03-05T00:02:13.868Z,7.77
2024-03-05T00:03:13.814Z,7.77
2024-03-05T00:04:13.852Z,7.76
2024-03-05T00:05:13.814Z,7.73
2024-03-05T00:06:13.787Z,7.71
2024-03-05T00:07:13.780Z,7.69
2024-03-05T00:08:13.770Z,7.69
2024-03-05T00:09:13.759Z,7.67
2024-03-05T00:10:14.129Z,7.66
2024-03-05T00:11:13.873Z,7.62
2024-03-05T00:12:13.731Z,7.63
2024-03-05T00:13:13.726Z,7.62
2024-03-05T00:14:13.691Z,7.60
2024-03-05T00:15:13.699Z,7.58
2024-03-05T00:16:13.678Z,7.58
2024-03-05T00:17:13.645Z,7.55
2024-03-05T00:18:13.704Z,7.55
2024-03-05T00:19:13.663Z,7.54
2024-03-05T00:20:13.609Z,7.55
2024-03-05T00:21:13.594Z,7.54
2024-03-05T00:22:13.599Z,7.52
2024-03-05T00:23:13.574Z,7.51
2024-03-05T00:24:13.566Z,7.52
2024-03-05T00:25:13.581Z,7.51
2024-03-05T00:26:13.524Z,7.48
2024-03-05T00:27:13.524Z,7.48
2024-03-05T00:28:13.556Z,7.48
2024-03-05T00:29:13.529Z,7.50
2024-03-05T00:30:13.477Z,7.48
2024-03-05T00:31:13.492Z,7.47
2024-03-05T00:32:13.457Z,7.48
2024-03-05T00:33:13.468Z,7.47
2024-03-05T00:34:13.468Z,7.47
2024-03-05T00:35:13.418Z,7.45
2024-03-05T00:36:13.402Z,7.44
2024-03-05T00:37:13.414Z,7.42
2024-03-05T00:38:18.625Z,7.44
2024-03-05T00:39:14.382Z,7.42
2024-03-05T00:40:13.407Z,7.42
2024-03-05T00:41:13.347Z,7.41
2024-03-05T00:42:13.314Z,7.37
2024-03-05T00:43:13.344Z,7.37
2024-03-05T00:44:13.282Z,7.37
2024-03-05T00:45:13.336Z,7.36
2024-03-05T00:46:13.305Z,7.33
2024-03-05T00:47:13.270Z,7.34
2024-03-05T00:48:13.240Z,7.32
2024-03-05T00:49:14.029Z,7.33
2024-03-05T00:50:13.238Z,7.32
2024-03-05T00:51:13.212Z,7.30
2024-03-05T00:52:13.242Z,7.30
2024-03-05T00:53:13.183Z,7.30
2024-03-05T00:54:13.181Z,7.30
2024-03-05T00:55:13.183Z,7.29
2024-03-05T00:56:13.170Z,7.30
2024-03-05T00:57:13.132Z,7.27
2024-03-05T00:58:13.117Z,7.29
2024-03-05T00:59:13.103Z,7.27
2024-03-05T01:00:13.081Z,7.27
2024-03-05T01:01:13.174Z,7.29
2024-03-05T01:02:13.106Z,7.27
2024-03-05T01:03:13.049Z,7.29
2024-03-05T01:04:13.060Z,7.26
2024-03-05T01:05:13.031Z,7.27
2024-03-05T01:06:13.061Z,7.27
2024-03-05T01:07:12.993Z,7.27
2024-03-05T01:08:13.009Z,7.24
2024-03-05T01:09:12.975Z,7.24
2024-03-05T01:10:12.985Z,7.23
2024-03-05T01:11:13.004Z,7.24
2024-03-05T01:12:12.973Z,7.23
2024-03-05T01:13:12.938Z,7.24
2024-03-05T01:14:12.906Z,7.24
2024-03-05T01:15:12.899Z,7.26
2024-03-05T01:16:12.934Z,7.23
2024-03-05T01:17:12.869Z,7.21
2024-03-05T01:18:12.930Z,7.21
2024-03-05T01:19:12.871Z,7.21
2024-03-05T01:20:12.824Z,7.19
2024-03-05T01:21:12.847Z,7.18
2024-03-05T01:22:12.824Z,7.18
2024-03-05T01:23:12.799Z,7.16
2024-03-05T01:24:12.790Z,7.18
2024-03-05T01:25:12.786Z,7.16
2024-03-05T01:26:12.773Z,7.15
2024-03-05T01:27:12.744Z,7.12
2024-03-05T01:28:12.821Z,7.11
2024-03-05T01:29:12.732Z,7.09
2024-03-05T01:30:12.759Z,7.09
2024-03-05T01:31:12.764Z,7.07
2024-03-05T01:32:12.678Z,7.07
2024-03-05T01:33:12.681Z,7.05
2024-03-05T01:34:12.668Z,7.01
2024-03-05T01:35:12.803Z,7.04
2024-03-05T01:36:12.635Z,7.07
2024-03-05T01:37:12.643Z,7.08
2024-03-05T01:38:12.596Z,7.08
2024-03-05T01:39:12.585Z,7.09
2024-03-05T01:40:12.603Z,7.09
2024-03-05T01:41:12.599Z,7.09
2024-03-05T01:42:12.566Z,7.08
2024-03-05T01:43:12.602Z,7.08
2024-03-05T01:44:12.512Z,7.07
2024-03-05T01:45:12.515Z,7.08
2024-03-05T01:46:12.519Z,7.08
2024-03-05T01:47:12.498Z,7.08
2024-03-05T01:48:12.558Z,7.08
2024-03-05T01:49:12.475Z,7.08
2024-03-05T01:50:12.441Z,7.08
2024-03-05T01:51:12.470Z,7.08
2024-03-05T01:52:12.485Z,7.07
2024-03-05T01:53:12.439Z,7.05
2024-03-05T01:54:12.387Z,7.04
2024-03-05T01:55:12.513Z,7.05
2024-03-05T01:56:12.391Z,7.04
2024-03-05T01:57:12.369Z,7.01
2024-03-05T01:58:15.111Z,7.04
2024-03-05T01:59:12.337Z,7.01
2024-03-05T02:00:12.313Z,7.00
2024-03-05T02:01:12.388Z,7.00
2024-03-05T02:02:12.345Z,7.00
2024-03-05T02:03:12.408Z,7.00
2024-03-05T02:04:12.280Z,6.99
2024-03-05T02:05:12.246Z,7.00
2024-03-05T02:06:12.259Z,7.04
2024-03-05T02:07:12.348Z,7.07
2024-03-05T02:08:14.371Z,7.07
2024-03-05T02:09:12.224Z,7.09
2024-03-05T02:10:12.308Z,7.08
2024-03-05T02:11:12.247Z,7.09
2024-03-05T02:12:12.195Z,7.12
2024-03-05T02:13:12.155Z,7.12
2024-03-05T02:14:12.152Z,7.11
2024-03-05T02:15:12.121Z,7.09
2024-03-05T02:16:12.118Z,7.12
2024-03-05T02:17:12.091Z,7.12
2024-03-05T02:18:12.086Z,7.14
2024-03-05T02:19:12.137Z,7.16
2024-03-05T02:20:12.042Z,7.16
2024-03-05T02:21:12.076Z,7.18
2024-03-05T02:22:12.076Z,7.18
2024-03-05T02:23:12.044Z,7.19
2024-03-05T02:24:12.008Z,7.19
2024-03-05T02:25:12.009Z,7.19
2024-03-05T02:26:12.045Z,7.21
2024-03-05T02:27:17.333Z,7.23
2024-03-05T02:28:12.969Z,7.24
2024-03-05T02:29:11.934Z,7.26
2024-03-05T02:30:12.248Z,7.29
2024-03-05T02:31:11.952Z,7.29
2024-03-05T02:32:11.892Z,7.32
2024-03-05T02:33:11.980Z,7.33
2024-03-05T02:34:11.869Z,7.34
2024-03-05T02:35:11.864Z,7.37
2024-03-05T02:36:11.847Z,7.41
2024-03-05T02:37:11.866Z,7.41
2024-03-05T02:38:11.827Z,7.42
2024-03-05T02:39:11.804Z,7.45
2024-03-05T02:40:11.808Z,7.45
2024-03-05T02:41:11.789Z,7.45
2024-03-05T02:42:11.782Z,7.45
2024-03-05T02:43:11.767Z,7.44
2024-03-05T02:44:11.738Z,7.41
2024-03-05T02:45:11.759Z,7.42
2024-03-05T02:46:11.728Z,7.42
2024-03-05T02:47:11.707Z,7.42
2024-03-05T02:48:11.748Z,7.41
2024-03-05T02:49:11.680Z,7.37
2024-03-05T02:50:11.828Z,7.33
2024-03-05T02:51:11.703Z,7.30
2024-03-05T02:52:11.633Z,7.30
2024-03-05T02:53:11.634Z,7.29
2024-03-05T02:54:11.620Z,7.30
2024-03-05T02:55:11.608Z,7.30
2024-03-05T02:56:11.754Z,7.30
2024-03-05T02:57:11.578Z,7.30
2024-03-05T02:58:11.578Z,7.30
2024-03-05T02:59:11.576Z,7.30
2024-03-05T03:00:11.732Z,7.29
2024-03-05T03:01:11.579Z,7.27
2024-03-05T03:02:11.505Z,7.27
2024-03-05T03:03:11.499Z,7.27
2024-03-05T03:04:11.493Z,7.26
2024-03-05T03:05:11.466Z,7.30
2024-03-05T03:06:11.473Z,7.30
2024-03-05T03:07:11.465Z,7.32
2024-03-05T03:08:11.434Z,7.30
2024-03-05T03:09:11.454Z,7.30
2024-03-05T03:10:11.417Z,7.34
2024-03-05T03:11:11.525Z,7.33
2024-03-05T03:12:11.376Z,7.34
2024-03-05T03:13:11.373Z,7.36
2024-03-05T03:14:11.345Z,7.36
2024-03-05T03:15:11.340Z,7.36
2024-03-05T03:16:11.349Z,7.36
2024-03-05T03:17:11.324Z,7.32
2024-03-05T03:18:11.360Z,7.32
2024-03-05T03:19:11.294Z,7.29
2024-03-05T03:20:11.303Z,7.27
2024-03-05T03:21:11.263Z,7.29
2024-03-05T03:22:11.266Z,7.27
2024-03-05T03:23:11.235Z,7.29
2024-03-05T03:24:11.231Z,7.27
2024-03-05T03:25:11.212Z,7.29
2024-03-05T03:26:11.293Z,7.27
2024-03-05T03:27:11.193Z,7.27
2024-03-05T03:28:11.194Z,7.27
2024-03-05T03:29:11.181Z,7.27
2024-03-05T03:30:11.142Z,7.29
2024-03-05T03:31:11.141Z,7.29
2024-03-05T03:32:11.117Z,7.32
2024-03-05T03:33:11.132Z,7.32
2024-03-05T03:34:11.118Z,7.32
2024-03-05T03:35:11.084Z,7.33
2024-03-05T03:36:11.065Z,7.36
2024-03-05T03:37:11.075Z,7.34
2024-03-05T03:38:11.048Z,7.34
2024-03-05T03:39:11.038Z,7.34
2024-03-05T03:40:11.046Z,7.34
2024-03-05T03:41:11.014Z,7.32
2024-03-05T03:42:10.995Z,7.32
2024-03-05T03:43:10.983Z,7.33
2024-03-05T03:44:10.969Z,7.33
2024-03-05T03:45:10.988Z,7.33
2024-03-05T03:46:10.937Z,7.33
2024-03-05T03:47:10.929Z,7.33
2024-03-05T03:48:10.935Z,7.32
2024-03-05T03:49:10.896Z,7.32
2024-03-05T03:50:10.885Z,7.33
2024-03-05T03:51:10.896Z,7.32
2024-03-05T03:52:10.875Z,7.33
2024-03-05T03:53:10.885Z,7.33
2024-03-05T03:54:10.855Z,7.32
2024-03-05T03:55:10.829Z,7.33
2024-03-05T03:56:10.798Z,7.32
2024-03-05T03:57:10.831Z,7.32
2024-03-05T03:58:10.782Z,7.33
2024-03-05T03:59:10.778Z,7.32
2024-03-05T04:00:10.776Z,7.30
2024-03-05T04:01:10.785Z,7.32
2024-03-05T04:02:10.847Z,7.33
2024-03-05T04:03:10.749Z,7.32
2024-03-05T04:04:10.706Z,7.30
2024-03-05T04:05:11.018Z,7.32
2024-03-05T04:06:10.684Z,7.32
2024-03-05T04:07:10.698Z,7.32
2024-03-05T04:08:10.702Z,7.34
2024-03-05T04:09:10.650Z,7.34
2024-03-05T04:10:10.637Z,7.34
2024-03-05T04:11:10.686Z,7.34
2024-03-05T04:12:10.631Z,7.36
2024-03-05T04:13:10.619Z,7.33
2024-03-05T04:14:10.682Z,7.33
2024-03-05T04:15:10.909Z,7.33
2024-03-05T04:16:10.551Z,7.34
2024-03-05T04:17:10.567Z,7.36
2024-03-05T04:18:10.570Z,7.36
2024-03-05T04:19:10.521Z,7.36
2024-03-05T04:20:10.975Z,7.34
2024-03-05T04:21:10.502Z,7.37
2024-03-05T04:22:10.491Z,7.37
2024-03-05T04:23:10.475Z,7.37
2024-03-05T04:24:10.439Z,7.36
2024-03-05T04:25:10.660Z,7.36
2024-03-05T04:26:10.479Z,7.37
2024-03-05T04:27:10.448Z,7.39
2024-03-05T04:28:10.405Z,7.41
2024-03-05T04:29:10.402Z,7.41
2024-03-05T04:30:10.376Z,7.44
2024-03-05T04:31:10.371Z,7.41
2024-03-05T04:32:10.632Z,7.41
2024-03-05T04:34:10.335Z,7.44
2024-03-05T04:35:10.312Z,7.42
2024-03-05T04:36:10.303Z,7.44
2024-03-05T04:37:10.305Z,7.42
2024-03-05T04:38:10.289Z,7.44
2024-03-05T04:39:10.251Z,7.44
2024-03-05T04:40:10.263Z,7.45
2024-03-05T04:41:10.241Z,7.48
2024-03-05T04:42:10.232Z,7.47
2024-03-05T04:43:10.202Z,7.47
2024-03-05T04:44:10.193Z,7.48
2024-03-05T04:45:10.186Z,7.47
2024-03-05T04:46:10.168Z,7.50
2024-03-05T04:47:10.156Z,7.50
2024-03-05T04:48:10.172Z,7.50
2024-03-05T04:49:10.127Z,7.51
2024-03-05T04:50:10.106Z,7.51
2024-03-05T04:51:10.091Z,7.52
2024-03-05T04:52:10.187Z,7.52
2024-03-05T04:53:10.137Z,7.54
2024-03-05T04:54:10.056Z,7.54
2024-03-05T04:55:10.060Z,7.55
2024-03-05T04:56:10.094Z,7.55
2024-03-05T04:57:10.079Z,7.55
2024-03-05T04:58:10.005Z,7.55
2024-03-05T04:59:09.995Z,7.57
2024-03-05T05:00:09.981Z,7.60
2024-03-05T05:01:10.018Z,7.58
2024-03-05T05:02:10.053Z,7.57
2024-03-05T05:03:09.976Z,7.57
2024-03-05T05:04:09.944Z,7.60
2024-03-05T05:05:09.964Z,7.58
2024-03-05T05:06:09.931Z,7.57
2024-03-05T05:07:09.910Z,7.57
2024-03-05T05:08:09.952Z,7.57
2024-03-05T05:09:09.857Z,7.57
2024-03-05T05:10:09.870Z,7.58
2024-03-05T05:11:10.059Z,7.57
2024-03-05T05:12:09.839Z,7.58
2024-03-05T05:13:09.830Z,7.58
2024-03-05T05:14:09.903Z,7.58
2024-03-05T05:15:09.790Z,7.57
2024-03-05T05:16:09.787Z,7.58
2024-03-05T05:17:09.774Z,7.58
2024-03-05T05:18:09.803Z,7.60
2024-03-05T05:19:09.762Z,7.62
2024-03-05T05:20:17.408Z,7.60
2024-03-05T05:21:09.704Z,7.62
2024-03-05T05:22:12.423Z,7.63
2024-03-05T05:23:09.684Z,7.62
2024-03-05T05:24:09.699Z,7.62
2024-03-05T05:25:09.662Z,7.62
2024-03-05T05:26:09.737Z,7.60
2024-03-05T05:27:09.649Z,7.62
2024-03-05T05:28:09.658Z,7.63
2024-03-05T05:29:12.429Z,7.63
2024-03-05T05:30:14.089Z,7.63
2024-03-05T05:31:10.608Z,7.63
2024-03-05T05:32:09.647Z,7.63
2024-03-05T05:33:09.673Z,7.63
2024-03-05T05:34:09.555Z,7.66
2024-03-05T05:35:09.714Z,7.67
2024-03-05T05:36:09.540Z,7.67
2024-03-05T05:37:09.521Z,7.69
2024-03-05T05:38:09.505Z,7.67
2024-03-05T05:39:09.485Z,7.67
2024-03-05T05:40:09.482Z,7.67
2024-03-05T05:41:09.510Z,7.67
2024-03-05T05:42:09.430Z,7.63
2024-03-05T05:43:09.415Z,7.66
2024-03-05T05:44:09.420Z,7.66
2024-03-05T05:45:09.395Z,7.62
2024-03-05T05:46:09.386Z,7.62
2024-03-05T05:47:09.446Z,7.66
2024-03-05T05:48:09.415Z,7.63
2024-03-05T05:49:09.339Z,7.66
2024-03-05T05:50:09.340Z,7.66
2024-03-05T05:51:09.355Z,7.66
2024-03-05T05:52:09.325Z,7.63
2024-03-05T05:53:09.341Z,7.63
2024-03-05T05:54:09.283Z,7.66
2024-03-05T05:55:09.269Z,7.67
2024-03-05T05:56:09.297Z,7.63
2024-03-05T05:57:09.258Z,7.67
2024-03-05T05:58:09.264Z,7.69
2024-03-05T05:59:09.266Z,7.69
2024-03-05T06:00:09.208Z,7.70
2024-03-05T06:01:09.260Z,7.71
2024-03-05T06:02:09.285Z,7.71
2024-03-05T06:03:09.286Z,7.73
2024-03-05T06:04:09.185Z,7.71
2024-03-05T06:05:09.188Z,7.73
2024-03-05T06:06:09.140Z,7.71
2024-03-05T06:07:11.847Z,7.71
2024-03-05T06:08:09.115Z,7.73
2024-03-05T06:09:09.097Z,7.71
2024-03-05T06:10:09.100Z,7.73
2024-03-05T06:11:09.153Z,7.73
2024-03-05T06:12:09.062Z,7.74
2024-03-05T06:13:09.061Z,7.76
2024-03-05T06:14:09.043Z,7.74
2024-03-05T06:15:09.017Z,7.74
2024-03-05T06:16:09.083Z,7.77
2024-03-05T06:17:09.017Z,7.79
2024-03-05T06:18:09.070Z,7.81
2024-03-05T06:19:08.952Z,7.79
2024-03-05T06:20:09.074Z,7.79
2024-03-05T06:21:09.026Z,7.79
2024-03-05T06:22:09.881Z,7.77
2024-03-05T06:23:08.962Z,7.76
2024-03-05T06:24:08.913Z,7.77
2024-03-05T06:25:08.886Z,7.77
2024-03-05T06:26:08.961Z,7.79
2024-03-05T06:27:08.857Z,7.79
2024-03-05T06:28:08.841Z,7.79
2024-03-05T06:29:08.858Z,7.81
2024-03-05T06:30:08.854Z,7.82
2024-03-05T06:31:08.830Z,7.84
2024-03-05T06:32:08.858Z,7.84
2024-03-05T06:33:08.825Z,7.85
2024-03-05T06:34:08.789Z,7.86
2024-03-05T06:35:08.752Z,7.86
2024-03-05T06:36:08.765Z,7.86
2024-03-05T06:37:08.765Z,7.86
2024-03-05T06:38:08.755Z,7.85
2024-03-05T06:39:08.726Z,7.88
2024-03-05T06:40:08.691Z,7.86
2024-03-05T06:41:08.786Z,7.86
2024-03-05T06:42:08.679Z,7.86
2024-03-05T06:43:08.658Z,7.86
2024-03-05T06:44:08.637Z,7.88
2024-03-05T06:45:08.635Z,7.89
2024-03-05T06:46:08.608Z,7.88
2024-03-05T06:47:08.627Z,7.91
2024-03-05T06:48:16.440Z,7.86
2024-03-05T06:49:09.593Z,7.89
2024-03-05T06:50:08.581Z,7.86
2024-03-05T06:51:08.548Z,7.89
2024-03-05T06:52:08.551Z,7.89
2024-03-05T06:53:08.534Z,7.89
2024-03-05T06:54:08.542Z,7.92
2024-03-05T06:55:08.492Z,7.92
2024-03-05T06:56:08.474Z,7.92
2024-03-05T06:57:08.470Z,7.94
2024-03-05T06:58:08.503Z,7.95
2024-03-05T06:59:08.527Z,7.95
2024-03-05T07:00:08.443Z,7.95
2024-03-05T07:01:08.541Z,7.95
2024-03-05T07:02:08.461Z,7.96
2024-03-05T07:03:08.385Z,7.99
2024-03-05T07:04:08.492Z,7.96
2024-03-05T07:05:08.393Z,7.96
2024-03-05T07:06:08.515Z,7.95
2024-03-05T07:07:08.402Z,7.96
2024-03-05T07:08:08.339Z,8.00
2024-03-05T07:09:08.310Z,8.00
2024-03-05T07:10:08.324Z,7.99
2024-03-05T07:11:08.344Z,8.00
2024-03-05T07:12:08.286Z,8.00
2024-03-05T07:13:08.271Z,8.02
2024-03-05T07:14:08.310Z,8.03
2024-03-05T07:15:08.406Z,8.03
2024-03-05T07:16:08.255Z,8.03
2024-03-05T07:17:08.300Z,8.03
2024-03-05T07:18:08.226Z,8.03
2024-03-05T07:19:08.186Z,8.03
2024-03-05T07:20:08.250Z,8.03
2024-03-05T07:21:08.154Z,8.04
2024-03-05T07:22:08.172Z,8.04
2024-03-05T07:23:08.129Z,8.06
2024-03-05T07:24:08.121Z,8.04
2024-03-05T07:25:08.109Z,8.06
2024-03-05T07:26:08.521Z,8.07
2024-03-05T07:27:09.189Z,8.06
2024-03-05T07:28:08.099Z,8.06
2024-03-05T07:29:08.077Z,8.07
2024-03-05T07:30:08.068Z,8.07
2024-03-05T07:31:08.074Z,8.06
2024-03-05T07:32:08.109Z,8.07
2024-03-05T07:33:08.049Z,8.09
2024-03-05T07:34:08.018Z,8.09
2024-03-05T07:35:08.042Z,8.09
2024-03-05T07:36:08.076Z,8.09
2024-03-05T07:37:07.968Z,8.10
2024-03-05T07:38:07.940Z,8.10
2024-03-05T07:39:07.964Z,8.12
2024-03-05T07:40:07.925Z,8.10
2024-03-05T07:41:14.120Z,8.12
2024-03-05T07:42:08.893Z,8.12
2024-03-05T07:43:07.879Z,8.13
2024-03-05T07:44:07.919Z,8.13
2024-03-05T07:45:07.874Z,8.13
2024-03-05T07:46:07.846Z,8.14
2024-03-05T07:47:07.901Z,8.14
2024-03-05T07:48:07.837Z,8.14
2024-03-05T07:49:07.810Z,8.14
2024-03-05T07:50:07.879Z,8.13
2024-03-05T07:51:07.796Z,8.14
2024-03-05T07:52:07.779Z,8.14
2024-03-05T07:53:07.776Z,8.13
2024-03-05T07:54:07.743Z,8.14
2024-03-05T07:55:07.739Z,8.14
2024-03-05T07:56:07.779Z,8.18
2024-03-05T07:57:07.696Z,8.14
2024-03-05T07:58:07.702Z,8.17
2024-03-05T07:59:07.700Z,8.18
2024-03-05T08:00:07.674Z,8.18
2024-03-05T08:01:07.692Z,8.20
2024-03-05T08:02:07.740Z,8.18
2024-03-05T08:03:07.627Z,8.18
2024-03-05T08:04:07.691Z,8.20
2024-03-05T08:05:07.625Z,8.20
2024-03-05T08:06:07.596Z,8.21
2024-03-05T08:07:07.574Z,8.21
2024-03-05T08:08:07.582Z,8.22
2024-03-05T08:09:07.576Z,8.22
2024-03-05T08:10:07.562Z,8.24
2024-03-05T08:11:07.632Z,8.22
2024-03-05T08:12:07.521Z,8.24
2024-03-05T08:13:07.553Z,8.25
2024-03-05T08:14:07.531Z,8.27
2024-03-05T08:15:07.484Z,8.25
2024-03-05T08:16:07.458Z,8.27
2024-03-05T08:17:07.494Z,8.24
2024-03-05T08:18:07.466Z,8.27
2024-03-05T08:19:07.452Z,8.25
2024-03-05T08:20:07.507Z,8.27
2024-03-05T08:21:07.392Z,8.27
2024-03-05T08:22:07.397Z,8.27
2024-03-05T08:23:07.476Z,8.27
2024-03-05T08:24:07.373Z,8.28
2024-03-05T08:25:07.365Z,8.29
2024-03-05T08:26:07.414Z,8.29
2024-03-05T08:27:07.423Z,8.31
2024-03-05T08:28:07.338Z,8.31
2024-03-05T08:29:07.457Z,8.31
2024-03-05T08:30:07.294Z,8.32
2024-03-05T08:31:07.297Z,8.32
2024-03-05T08:32:07.289Z,8.31
2024-03-05T08:33:07.282Z,8.32
2024-03-05T08:34:07.239Z,8.31
2024-03-05T08:35:07.341Z,8.32
2024-03-05T08:36:07.235Z,8.29
2024-03-05T08:37:07.182Z,8.32
2024-03-05T08:38:07.226Z,8.34
2024-03-05T08:39:07.168Z,8.34
2024-03-05T08:40:07.167Z,8.36
2024-03-05T08:41:07.252Z,8.37
2024-03-05T08:42:07.166Z,8.36
2024-03-05T08:43:07.120Z,8.37
2024-03-05T08:44:07.145Z,8.37
2024-03-05T08:45:07.097Z,8.37
2024-03-05T08:46:07.081Z,8.37
2024-03-05T08:47:07.104Z,8.39
2024-03-05T08:48:07.128Z,8.39
2024-03-05T08:49:07.036Z,8.37
2024-03-05T08:50:07.084Z,8.37
2024-03-05T08:51:07.009Z,8.39
2024-03-05T08:52:06.991Z,8.40
2024-03-05T08:53:07.146Z,8.42
2024-03-05T08:54:06.974Z,8.42
2024-03-05T08:55:06.987Z,8.42
2024-03-05T08:56:06.970Z,8.42
2024-03-05T08:57:06.966Z,8.42
2024-03-05T08:58:06.926Z,8.45
2024-03-05T08:59:06.972Z,8.43
2024-03-05T09:00:15.843Z,8.45
2024-03-05T09:01:07.971Z,8.45
2024-03-05T09:02:06.952Z,8.43
2024-03-05T09:03:06.862Z,8.42
2024-03-05T09:04:06.845Z,8.43
2024-03-05T09:05:06.920Z,8.45
2024-03-05T09:06:06.826Z,8.43
2024-03-05T09:07:06.817Z,8.42
2024-03-05T09:08:07.242Z,8.45
2024-03-05T09:09:06.784Z,8.43
2024-03-05T09:10:06.775Z,8.43
2024-03-05T09:11:07.091Z,8.45
2024-03-05T09:12:06.790Z,8.43
2024-03-05T09:13:06.745Z,8.42
2024-03-05T09:14:06.740Z,8.42
2024-03-05T09:15:06.909Z,8.42
2024-03-05T09:16:06.734Z,8.42
2024-03-05T09:17:06.832Z,8.40
2024-03-05T09:18:06.714Z,8.39
2024-03-05T09:19:06.647Z,8.39
2024-03-05T09:20:06.686Z,8.39
2024-03-05T09:21:06.633Z,8.39
2024-03-05T09:22:06.623Z,8.36
2024-03-05T09:23:06.729Z,8.37
2024-03-05T09:24:06.588Z,8.37
2024-03-05T09:25:06.579Z,8.36
2024-03-05T09:26:06.588Z,8.36
2024-03-05T09:27:06.557Z,8.34
2024-03-05T09:28:06.559Z,8.34
2024-03-05T09:29:06.587Z,8.36
2024-03-05T09:30:06.530Z,8.34
2024-03-05T09:31:06.504Z,8.34
2024-03-05T09:32:06.543Z,8.34
2024-03-05T09:33:06.525Z,8.34
2024-03-05T09:34:06.461Z,8.34
2024-03-05T09:35:06.487Z,8.32
2024-03-05T09:36:06.427Z,8.34
2024-03-05T09:37:06.425Z,8.34
2024-03-05T09:38:06.577Z,8.36
2024-03-05T09:39:06.416Z,8.36
2024-03-05T09:40:06.385Z,8.36
2024-03-05T09:41:06.464Z,8.36
2024-03-05T09:42:06.348Z,8.36
2024-03-05T09:43:06.387Z,8.37
2024-03-05T09:44:06.414Z,8.36
2024-03-05T09:45:06.355Z,8.36
2024-03-05T09:46:06.324Z,8.37
2024-03-05T09:47:06.418Z,8.37
2024-03-05T09:48:06.379Z,8.39
2024-03-05T09:49:14.948Z,8.39
2024-03-05T09:50:07.425Z,8.37
2024-03-05T09:51:06.249Z,8.39
2024-03-05T09:52:06.239Z,8.37
2024-03-05T09:53:06.540Z,8.39
2024-03-05T09:54:06.215Z,8.39
2024-03-05T09:55:06.194Z,8.37
2024-03-05T09:56:06.372Z,8.37
2024-03-05T09:57:06.168Z,8.37
2024-03-05T09:58:06.168Z,8.37
2024-03-05T09:59:06.223Z,8.39
2024-03-05T10:00:06.142Z,8.36
2024-03-05T10:01:06.180Z,8.36
2024-03-05T10:02:06.210Z,8.36
2024-03-05T10:03:06.115Z,8.34
2024-03-05T10:04:06.073Z,8.37
2024-03-05T10:05:06.203Z,8.37
2024-03-05T10:06:06.060Z,8.39
2024-03-05T10:07:06.051Z,8.37
2024-03-05T10:08:06.073Z,8.40
2024-03-05T10:09:06.018Z,8.40
2024-03-05T10:10:06.016Z,8.42
2024-03-05T10:11:06.116Z,8.42
2024-03-05T10:12:06.034Z,8.42
2024-03-05T10:13:05.979Z,8.42
2024-03-05T10:14:05.983Z,8.45
2024-03-05T10:15:05.945Z,8.43
2024-03-05T10:16:05.916Z,8.45
2024-03-05T10:17:05.979Z,8.43
2024-03-05T10:18:05.962Z,8.45
2024-03-05T10:19:05.894Z,8.46
2024-03-05T10:20:05.964Z,8.46
2024-03-05T10:21:05.861Z,8.46
2024-03-05T10:22:05.842Z,8.46
2024-03-05T10:23:06.013Z,8.47
2024-03-05T10:24:05.849Z,8.47
2024-03-05T10:25:05.806Z,8.49
2024-03-05T10:26:05.960Z,8.50
2024-03-05T10:27:05.794Z,8.50
2024-03-05T10:28:05.809Z,8.50
2024-03-05T10:29:05.780Z,8.54
2024-03-05T10:30:05.762Z,8.55
2024-03-05T10:31:05.745Z,8.55
2024-03-05T10:32:05.845Z,8.58
2024-03-05T10:33:05.757Z,8.58
2024-03-05T10:34:05.719Z,8.60
2024-03-05T10:35:05.751Z,8.60
2024-03-05T10:36:05.672Z,8.63
2024-03-05T10:37:05.655Z,8.63
2024-03-05T10:38:05.674Z,8.65
2024-03-05T10:39:05.699Z,8.65
2024-03-05T10:40:05.643Z,8.67
2024-03-05T10:41:05.741Z,8.65
2024-03-05T10:42:05.594Z,8.64
2024-03-05T10:43:05.738Z,8.65
2024-03-05T10:44:05.619Z,8.65
2024-03-05T10:45:05.613Z,8.65
2024-03-05T10:46:05.570Z,8.67
2024-03-05T10:47:05.582Z,8.67
2024-03-05T10:48:05.538Z,8.67
2024-03-05T10:49:05.522Z,8.70
2024-03-05T10:50:05.575Z,8.71
2024-03-05T10:51:05.518Z,8.71
2024-03-05T10:52:05.466Z,8.75
2024-03-05T10:53:05.509Z,8.73
2024-03-05T10:54:05.449Z,8.76
2024-03-05T10:55:06.634Z,8.76
2024-03-05T10:56:05.469Z,8.76
2024-03-05T10:57:05.451Z,8.75
2024-03-05T10:58:05.386Z,8.75
2024-03-05T10:59:05.403Z,8.78
2024-03-05T11:00:05.375Z,8.79
2024-03-05T11:01:05.376Z,8.75
2024-03-05T11:02:05.377Z,8.76
2024-03-05T11:03:05.347Z,8.78
2024-03-05T11:04:05.319Z,8.76
2024-03-05T11:05:05.341Z,8.76
2024-03-05T11:06:05.301Z,8.78
2024-03-05T11:07:05.287Z,8.80
2024-03-05T11:08:05.300Z,8.82
2024-03-05T11:09:05.286Z,8.85
2024-03-05T11:10:05.256Z,8.85
2024-03-05T11:11:05.263Z,8.86
2024-03-05T11:12:05.286Z,8.85
2024-03-05T11:13:05.216Z,8.85
2024-03-05T11:14:05.317Z,8.85
2024-03-05T11:15:05.184Z,8.85
2024-03-05T11:16:05.213Z,8.82
2024-03-05T11:17:05.235Z,8.82
2024-03-05T11:18:05.198Z,8.82
2024-03-05T11:19:05.125Z,8.79
2024-03-05T11:20:05.235Z,8.78
2024-03-05T11:21:05.109Z,8.73
2024-03-05T11:22:05.111Z,8.70
2024-03-05T11:23:14.430Z,8.71
2024-03-05T11:24:05.158Z,8.71
2024-03-05T11:25:05.074Z,8.70
2024-03-05T11:26:05.946Z,8.68
2024-03-05T11:27:05.073Z,8.68
2024-03-05T11:28:05.053Z,8.70
2024-03-05T11:29:05.149Z,8.71
2024-03-05T11:30:05.037Z,8.73
2024-03-05T11:31:05.271Z,8.75
2024-03-05T11:32:05.257Z,8.73
2024-03-05T11:33:05.099Z,8.76
2024-03-05T11:34:05.184Z,8.78
2024-03-05T11:35:05.070Z,8.78
2024-03-05T11:36:04.948Z,8.79
2024-03-05T11:37:04.982Z,8.78
2024-03-05T11:38:05.056Z,8.79
2024-03-05T11:39:05.085Z,8.79
2024-03-05T11:40:07.136Z,8.79
2024-03-05T11:41:05.097Z,8.79
2024-03-05T11:42:04.860Z,8.82
2024-03-05T11:43:04.938Z,8.82
2024-03-05T11:44:04.984Z,8.83
2024-03-05T11:45:04.825Z,8.83
2024-03-05T11:46:04.820Z,8.85
2024-03-05T11:47:04.969Z,8.85
2024-03-05T11:48:04.817Z,8.83
2024-03-05T11:49:04.756Z,8.83
2024-03-05T11:50:04.926Z,8.80
2024-03-05T11:51:04.733Z,8.80
2024-03-05T11:52:04.754Z,8.83
2024-03-05T11:53:04.766Z,8.82
2024-03-05T11:54:04.725Z,8.83
2024-03-05T11:55:04.681Z,8.83
2024-03-05T11:56:04.704Z,8.86
2024-03-05T11:57:04.644Z,8.83
2024-03-05T11:58:04.635Z,8.85
2024-03-05T11:59:04.686Z,8.86
2024-03-05T12:00:04.647Z,8.83
2024-03-05T12:01:04.653Z,8.83
2024-03-05T12:02:04.642Z,8.82
2024-03-05T12:03:04.625Z,8.85
2024-03-05T12:04:04.601Z,8.85
2024-03-05T12:05:04.622Z,8.85
2024-03-05T12:06:04.575Z,8.85
2024-03-05T12:07:04.504Z,8.83
2024-03-05T12:08:04.567Z,8.83
2024-03-05T12:09:04.488Z,8.83
2024-03-05T12:10:04.465Z,8.83
2024-03-05T12:11:04.563Z,8.82
2024-03-05T12:12:05.081Z,8.82
2024-03-05T12:13:04.428Z,8.82
2024-03-05T12:14:04.521Z,8.83
2024-03-05T12:15:06.548Z,8.86
2024-03-05T12:16:04.428Z,8.83
2024-03-05T12:17:04.435Z,8.85
2024-03-05T12:18:04.399Z,8.86
2024-03-05T12:19:04.388Z,8.86
2024-03-05T12:20:04.503Z,8.88
2024-03-05T12:21:04.343Z,8.89
2024-03-05T12:22:04.363Z,8.88
2024-03-05T12:24:04.311Z,8.85
2024-03-05T12:25:04.290Z,8.79
2024-03-05T12:26:04.390Z,8.80
2024-03-05T12:27:04.300Z,8.82
2024-03-05T12:28:04.259Z,8.86
2024-03-05T12:29:04.413Z,8.83
2024-03-05T12:30:04.324Z,8.80
2024-03-05T12:31:04.276Z,8.82
2024-03-05T12:32:04.330Z,8.83
2024-03-05T12:33:04.321Z,8.86
2024-03-05T12:34:04.212Z,8.86
2024-03-05T12:35:04.285Z,8.89
2024-03-05T12:36:04.212Z,8.94
2024-03-05T12:37:04.159Z,8.91
2024-03-05T12:38:04.211Z,8.91
2024-03-05T12:39:04.161Z,8.91
2024-03-05T12:40:04.113Z,8.88
2024-03-05T12:41:04.232Z,8.82
2024-03-05T12:42:04.104Z,8.78
2024-03-05T12:43:04.084Z,8.76
2024-03-05T12:44:04.356Z,8.78
2024-03-05T12:45:06.079Z,8.82
2024-03-05T12:46:04.324Z,8.85
2024-03-05T12:47:04.033Z,8.85
2024-03-05T12:48:05.041Z,8.83
2024-03-05T12:49:03.978Z,8.86
2024-03-05T12:50:04.190Z,8.89
2024-03-05T12:51:04.027Z,8.91
2024-03-05T12:52:03.933Z,8.93
2024-03-05T12:53:04.048Z,8.96
2024-03-05T12:54:09.041Z,8.98
2024-03-05T12:55:04.940Z,9.01
2024-03-05T12:56:04.196Z,9.04
2024-03-05T12:57:03.921Z,9.06
2024-03-05T12:58:03.876Z,9.06
2024-03-05T12:59:03.910Z,9.08
2024-03-05T13:00:03.896Z,9.04
2024-03-05T13:01:03.856Z,9.04
2024-03-05T13:02:04.000Z,9.04
2024-03-05T13:03:03.810Z,9.01
2024-03-05T13:04:03.804Z,9.01
2024-03-05T13:05:03.846Z,9.01
2024-03-05T13:06:03.760Z,8.98
2024-03-05T13:07:03.771Z,9.00
2024-03-05T13:08:03.794Z,9.01
2024-03-05T13:09:03.720Z,9.00
2024-03-05T13:10:03.726Z,9.01
2024-03-05T13:11:03.801Z,9.00
2024-03-05T13:12:03.734Z,9.01
2024-03-05T13:13:03.694Z,9.01
2024-03-05T13:14:03.697Z,9.00
2024-03-05T13:15:03.649Z,9.00
2024-03-05T13:16:03.754Z,9.00
2024-03-05T13:17:03.818Z,9.03
2024-03-05T13:18:03.675Z,9.03
2024-03-05T13:19:03.600Z,9.03
2024-03-05T13:20:03.781Z,9.03